Augusta Springs, Virginia
Current Conditions -  °F | °C
As of 8:15 AM on Friday 28 Nov 2014 (Local Time) from KW13 Reporting Station
Broken Clouds Broken Clouds  
Wind Chill: 28°   Ceiling: 3800
Heat Index: 28°   Visibility: 10mi
Dew Point: 13°   Wind: 3mph
Humidity: 54%   Direction: 310°NW
Pressure: 30.28"   Gusts: NA
Location:  38.1°N, 79.32°W
Report Text: KW13 281315Z AUTO 31003KT 10SM BKN038 M02/M11 A3028 RMK AO1 T10251107
Loading
Personal Weather Stations






























Interactive Weather Map New forecast layout! Learn more

10-Day Weather Forecast

Advertisements
Track Severe Weather on mobile